sensor_id;sensor_type;location;lat;lon;timestamp;pressure;altitude;pressure_sealevel;temperature;humidity
1480;BME280;732;51.698;4.886;2023-01-29T00:00:15;103161.94;;;0.55;100.00
1480;BME280;732;51.698;4.886;2023-01-29T00:02:44;103183.31;;;0.74;100.00
1480;BME280;732;51.698;4.886;2023-01-29T00:05:12;103152.09;;;0.51;100.00
1480;BME280;732;51.698;4.886;2023-01-29T00:07:53;103168.09;;;0.67;100.00
1480;BME280;732;51.698;4.886;2023-01-29T00:10:22;103087.69;;;0.23;100.00
1480;BME280;732;51.698;4.886;2023-01-29T00:12:50;103177.19;;;0.84;100.00
1480;BME280;732;51.698;4.886;2023-01-29T00:15:20;103168.50;;;0.83;100.00
1480;BME280;732;51.698;4.886;2023-01-29T00:17:48;103131.84;;;0.67;100.00
1480;BME280;732;51.698;4.886;2023-01-29T00:20:17;103163.81;;;0.90;100.00
1480;BME280;732;51.698;4.886;2023-01-29T00:22:46;103159.22;;;0.97;100.00
1480;BME280;732;51.698;4.886;2023-01-29T00:25:15;103123.22;;;0.78;100.00
1480;BME280;732;51.698;4.886;2023-01-29T00:27:43;103144.88;;;0.91;100.00
1480;BME280;732;51.698;4.886;2023-01-29T00:30:12;103118.56;;;0.74;100.00
1480;BME280;732;51.698;4.886;2023-01-29T00:32:47;103136.34;;;0.70;100.00
1480;BME280;732;51.698;4.886;2023-01-29T00:35:16;103118.09;;;0.68;100.00
1480;BME280;732;51.698;4.886;2023-01-29T00:37:45;103135.41;;;0.91;100.00
1480;BME280;732;51.698;4.886;2023-01-29T00:40:14;103139.56;;;0.89;100.00
1480;BME280;732;51.698;4.886;2023-01-29T00:42:44;103134.66;;;0.92;100.00
1480;BME280;732;51.698;4.886;2023-01-29T00:45:31;103078.34;;;0.68;100.00
1480;BME280;732;51.698;4.886;2023-01-29T00:48:01;103085.44;;;0.70;100.00
1480;BME280;732;51.698;4.886;2023-01-29T00:50:30;103124.44;;;1.05;100.00
1480;BME280;732;51.698;4.886;2023-01-29T00:52:58;103137.41;;;1.05;100.00
1480;BME280;732;51.698;4.886;2023-01-29T00:55:27;103095.75;;;0.59;100.00
1480;BME280;732;51.698;4.886;2023-01-29T00:57:55;103092.75;;;0.64;100.00
1480;BME280;732;51.698;4.886;2023-01-29T01:00:24;103118.47;;;0.73;100.00
1480;BME280;732;51.698;4.886;2023-01-29T01:02:52;103084.47;;;0.47;100.00
1480;BME280;732;51.698;4.886;2023-01-29T01:05:34;103132.88;;;0.81;100.00
1480;BME280;732;51.698;4.886;2023-01-29T01:08:03;103044.94;;;0.49;100.00
1480;BME280;732;51.698;4.886;2023-01-29T01:11:02;103117.06;;;0.88;100.00
1480;BME280;732;51.698;4.886;2023-01-29T01:13:31;103134.56;;;1.02;100.00
1480;BME280;732;51.698;4.886;2023-01-29T01:16:00;103118.19;;;0.92;100.00
1480;BME280;732;51.698;4.886;2023-01-29T01:18:29;103112.09;;;0.91;100.00
1480;BME280;732;51.698;4.886;2023-01-29T01:21:00;103059.78;;;0.73;100.00
1480;BME280;732;51.698;4.886;2023-01-29T01:23:28;103111.22;;;1.02;100.00
1480;BME280;732;51.698;4.886;2023-01-29T01:25:56;103121.91;;;0.95;100.00
1480;BME280;732;51.698;4.886;2023-01-29T01:28:25;103127.16;;;1.07;100.00
1480;BME280;732;51.698;4.886;2023-01-29T01:30:54;103087.50;;;0.74;100.00
1480;BME280;732;51.698;4.886;2023-01-29T01:33:22;103105.19;;;0.80;100.00
1480;BME280;732;51.698;4.886;2023-01-29T01:35:51;103074.13;;;0.80;100.00
1480;BME280;732;51.698;4.886;2023-01-29T01:38:21;103120.28;;;1.07;100.00
1480;BME280;732;51.698;4.886;2023-01-29T01:40:50;103108.41;;;0.99;100.00
1480;BME280;732;51.698;4.886;2023-01-29T01:43:19;103126.78;;;1.02;100.00
1480;BME280;732;51.698;4.886;2023-01-29T01:45:48;103087.59;;;0.76;100.00
1480;BME280;732;51.698;4.886;2023-01-29T01:48:20;103130.41;;;1.04;100.00
1480;BME280;732;51.698;4.886;2023-01-29T01:50:53;103099.38;;;0.94;100.00
1480;BME280;732;51.698;4.886;2023-01-29T01:53:28;103138.97;;;1.03;100.00
1480;BME280;732;51.698;4.886;2023-01-29T01:56:05;103104.41;;;0.81;100.00
1480;BME280;732;51.698;4.886;2023-01-29T01:58:38;103115.78;;;0.83;100.00
1480;BME280;732;51.698;4.886;2023-01-29T02:01:08;103086.84;;;0.77;100.00
1480;BME280;732;51.698;4.886;2023-01-29T02:03:41;103088.41;;;0.75;100.00
1480;BME280;732;51.698;4.886;2023-01-29T02:06:29;103144.53;;;0.86;100.00
1480;BME280;732;51.698;4.886;2023-01-29T02:09:20;103114.41;;;0.76;100.00
1480;BME280;732;51.698;4.886;2023-01-29T02:12:02;103118.31;;;0.93;100.00
1480;BME280;732;51.698;4.886;2023-01-29T02:14:32;103143.59;;;1.07;100.00
1480;BME280;732;51.698;4.886;2023-01-29T02:17:05;103138.91;;;0.92;100.00
1480;BME280;732;51.698;4.886;2023-01-29T02:19:48;103096.88;;;0.62;100.00
1480;BME280;732;51.698;4.886;2023-01-29T02:22:36;103127.84;;;0.82;100.00
1480;BME280;732;51.698;4.886;2023-01-29T02:25:37;103137.25;;;1.04;100.00
1480;BME280;732;51.698;4.886;2023-01-29T02:28:43;103131.41;;;1.06;100.00
1480;BME280;732;51.698;4.886;2023-01-29T02:31:26;103138.41;;;1.07;100.00
1480;BME280;732;51.698;4.886;2023-01-29T02:34:05;103134.59;;;1.14;100.00
1480;BME280;732;51.698;4.886;2023-01-29T02:36:44;103126.06;;;1.15;100.00
1480;BME280;732;51.698;4.886;2023-01-29T02:39:19;103054.00;;;0.54;100.00
1480;BME280;732;51.698;4.886;2023-01-29T02:42:10;103064.19;;;0.53;100.00
1480;BME280;732;51.698;4.886;2023-01-29T02:44:46;103068.94;;;0.58;100.00
1480;BME280;732;51.698;4.886;2023-01-29T02:47:20;103126.47;;;0.54;100.00
1480;BME280;732;51.698;4.886;2023-01-29T02:49:58;103086.44;;;0.39;100.00
1480;BME280;732;51.698;4.886;2023-01-29T02:52:35;103054.84;;;0.22;100.00
1480;BME280;732;51.698;4.886;2023-01-29T02:55:11;103125.38;;;0.62;100.00
1480;BME280;732;51.698;4.886;2023-01-29T02:57:43;103113.28;;;0.51;100.00
1480;BME280;732;51.698;4.886;2023-01-29T03:00:18;103133.75;;;0.48;100.00
1480;BME280;732;51.698;4.886;2023-01-29T03:02:56;103087.59;;;0.43;100.00
1480;BME280;732;51.698;4.886;2023-01-29T03:05:31;103118.63;;;0.64;100.00
1480;BME280;732;51.698;4.886;2023-01-29T03:08:07;103051.09;;;0.40;100.00
1480;BME280;732;51.698;4.886;2023-01-29T03:10:42;103089.22;;;0.52;100.00
1480;BME280;732;51.698;4.886;2023-01-29T03:13:17;103114.06;;;0.72;100.00
1480;BME280;732;51.698;4.886;2023-01-29T03:15:51;103083.94;;;0.62;100.00
1480;BME280;732;51.698;4.886;2023-01-29T03:18:58;103122.53;;;0.81;100.00
1480;BME280;732;51.698;4.886;2023-01-29T03:21:36;103127.25;;;0.75;100.00
1480;BME280;732;51.698;4.886;2023-01-29T03:24:29;103032.53;;;0.34;100.00
1480;BME280;732;51.698;4.886;2023-01-29T03:27:26;103113.44;;;0.86;100.00
1480;BME280;732;51.698;4.886;2023-01-29T03:30:15;103108.97;;;0.95;100.00
1480;BME280;732;51.698;4.886;2023-01-29T03:33:17;103084.53;;;0.70;100.00
1480;BME280;732;51.698;4.886;2023-01-29T03:35:51;103076.81;;;0.81;100.00
1480;BME280;732;51.698;4.886;2023-01-29T03:38:22;103105.41;;;1.05;100.00
1480;BME280;732;51.698;4.886;2023-01-29T03:40:58;103104.63;;;1.17;100.00
1480;BME280;732;51.698;4.886;2023-01-29T03:43:35;103104.31;;;1.13;100.00
1480;BME280;732;51.698;4.886;2023-01-29T03:46:10;103077.81;;;1.05;100.00
1480;BME280;732;51.698;4.886;2023-01-29T03:48:53;103107.97;;;1.05;100.00
1480;BME280;732;51.698;4.886;2023-01-29T03:51:27;103072.41;;;0.69;100.00
1480;BME280;732;51.698;4.886;2023-01-29T03:54:07;103094.94;;;0.81;100.00
1480;BME280;732;51.698;4.886;2023-01-29T03:56:54;103093.06;;;0.91;100.00
1480;BME280;732;51.698;4.886;2023-01-29T03:59:35;103087.53;;;0.86;100.00
1480;BME280;732;51.698;4.886;2023-01-29T04:02:19;103062.09;;;0.59;100.00
1480;BME280;732;51.698;4.886;2023-01-29T04:04:58;103077.78;;;0.94;100.00
1480;BME280;732;51.698;4.886;2023-01-29T04:07:30;103046.66;;;0.82;100.00
1480;BME280;732;51.698;4.886;2023-01-29T04:10:07;103072.88;;;0.86;100.00
1480;BME280;732;51.698;4.886;2023-01-29T04:12:40;103076.22;;;0.74;100.00
1480;BME280;732;51.698;4.886;2023-01-29T04:15:13;103082.44;;;0.76;100.00
1480;BME280;732;51.698;4.886;2023-01-29T04:17:49;103023.03;;;0.56;100.00
1480;BME280;732;51.698;4.886;2023-01-29T04:20:30;103028.81;;;0.63;100.00
1480;BME280;732;51.698;4.886;2023-01-29T04:22:59;103057.19;;;0.73;100.00
1480;BME280;732;51.698;4.886;2023-01-29T04:25:41;103080.22;;;0.80;100.00
1480;BME280;732;51.698;4.886;2023-01-29T04:28:17;103068.47;;;0.74;100.00
1480;BME280;732;51.698;4.886;2023-01-29T04:30:53;103011.84;;;0.45;100.00
1480;BME280;732;51.698;4.886;2023-01-29T04:33:33;103052.69;;;0.71;100.00
1480;BME280;732;51.698;4.886;2023-01-29T04:36:23;103041.81;;;0.53;100.00
1480;BME280;732;51.698;4.886;2023-01-29T04:39:05;103049.19;;;0.70;100.00
1480;BME280;732;51.698;4.886;2023-01-29T04:41:45;103031.56;;;0.55;100.00
1480;BME280;732;51.698;4.886;2023-01-29T04:44:22;102994.91;;;0.27;100.00
1480;BME280;732;51.698;4.886;2023-01-29T04:46:59;102957.81;;;0.05;100.00
1480;BME280;732;51.698;4.886;2023-01-29T04:49:34;103037.84;;;0.80;100.00
1480;BME280;732;51.698;4.886;2023-01-29T04:52:14;103039.63;;;0.69;100.00
1480;BME280;732;51.698;4.886;2023-01-29T04:54:53;103039.97;;;0.74;100.00
1480;BME280;732;51.698;4.886;2023-01-29T04:57:31;103027.50;;;0.80;100.00
1480;BME280;732;51.698;4.886;2023-01-29T05:00:06;102980.75;;;0.67;100.00
1480;BME280;732;51.698;4.886;2023-01-29T05:02:40;103000.09;;;0.72;100.00
1480;BME280;732;51.698;4.886;2023-01-29T05:05:09;103023.88;;;0.78;100.00
1480;BME280;732;51.698;4.886;2023-01-29T05:07:42;102820.97;;;-0.25;100.00
1480;BME280;732;51.698;4.886;2023-01-29T05:10:12;102993.97;;;0.48;100.00
1480;BME280;732;51.698;4.886;2023-01-29T05:12:47;102966.81;;;0.43;100.00
1480;BME280;732;51.698;4.886;2023-01-29T05:15:21;102875.22;;;-0.03;100.00
1480;BME280;732;51.698;4.886;2023-01-29T05:17:50;103013.63;;;0.79;100.00
1480;BME280;732;51.698;4.886;2023-01-29T05:20:32;102941.19;;;0.46;100.00
1480;BME280;732;51.698;4.886;2023-01-29T05:23:02;102955.59;;;0.43;100.00
1480;BME280;732;51.698;4.886;2023-01-29T05:25:32;102972.16;;;0.56;100.00
1480;BME280;732;51.698;4.886;2023-01-29T05:28:01;102921.53;;;0.27;100.00
1480;BME280;732;51.698;4.886;2023-01-29T05:30:34;102992.44;;;0.62;100.00
1480;BME280;732;51.698;4.886;2023-01-29T05:33:04;102972.38;;;0.59;100.00
1480;BME280;732;51.698;4.886;2023-01-29T05:35:36;102994.03;;;0.83;100.00
1480;BME280;732;51.698;4.886;2023-01-29T05:38:06;102926.44;;;0.57;100.00
1480;BME280;732;51.698;4.886;2023-01-29T05:40:35;102933.97;;;0.42;100.00
1480;BME280;732;51.698;4.886;2023-01-29T05:43:04;102994.75;;;0.92;100.00
1480;BME280;732;51.698;4.886;2023-01-29T05:45:33;103012.66;;;0.89;100.00
1480;BME280;732;51.698;4.886;2023-01-29T05:48:01;103025.28;;;1.08;100.00
1480;BME280;732;51.698;4.886;2023-01-29T05:50:30;103001.50;;;1.02;100.00
1480;BME280;732;51.698;4.886;2023-01-29T05:53:00;102945.84;;;0.85;100.00
1480;BME280;732;51.698;4.886;2023-01-29T05:55:30;103015.97;;;1.33;100.00
1480;BME280;732;51.698;4.886;2023-01-29T05:57:59;103007.84;;;1.40;100.00
1480;BME280;732;51.698;4.886;2023-01-29T06:00:27;102916.91;;;0.91;100.00
1480;BME280;732;51.698;4.886;2023-01-29T06:02:57;102979.22;;;1.27;100.00
1480;BME280;732;51.698;4.886;2023-01-29T06:05:26;103011.81;;;1.35;100.00
1480;BME280;732;51.698;4.886;2023-01-29T06:07:54;103014.75;;;1.28;100.00
1480;BME280;732;51.698;4.886;2023-01-29T06:10:23;102932.78;;;0.72;100.00
1480;BME280;732;51.698;4.886;2023-01-29T06:12:52;102990.69;;;0.84;100.00
1480;BME280;732;51.698;4.886;2023-01-29T06:15:21;102844.06;;;0.28;100.00
1480;BME280;732;51.698;4.886;2023-01-29T06:17:52;103009.31;;;1.25;100.00
1480;BME280;732;51.698;4.886;2023-01-29T06:20:21;102953.06;;;0.89;100.00
1480;BME280;732;51.698;4.886;2023-01-29T06:22:50;102964.53;;;0.81;100.00
1480;BME280;732;51.698;4.886;2023-01-29T06:25:18;103003.88;;;0.99;100.00
1480;BME280;732;51.698;4.886;2023-01-29T06:27:49;102964.66;;;0.71;100.00
1480;BME280;732;51.698;4.886;2023-01-29T06:30:19;102923.78;;;0.67;100.00
1480;BME280;732;51.698;4.886;2023-01-29T06:32:48;102941.03;;;0.90;100.00
1480;BME280;732;51.698;4.886;2023-01-29T06:35:16;102852.50;;;0.49;100.00
1480;BME280;732;51.698;4.886;2023-01-29T06:37:45;102979.91;;;1.13;100.00
1480;BME280;732;51.698;4.886;2023-01-29T06:40:13;102927.72;;;0.73;100.00
1480;BME280;732;51.698;4.886;2023-01-29T06:42:42;102985.41;;;1.17;100.00
1480;BME280;732;51.698;4.886;2023-01-29T06:45:12;102926.50;;;1.03;100.00
1480;BME280;732;51.698;4.886;2023-01-29T06:47:42;102987.66;;;1.24;100.00
1480;BME280;732;51.698;4.886;2023-01-29T06:50:11;102949.69;;;1.02;100.00
1480;BME280;732;51.698;4.886;2023-01-29T06:52:40;102989.13;;;1.21;100.00
1480;BME280;732;51.698;4.886;2023-01-29T06:55:09;102962.78;;;1.03;100.00
1480;BME280;732;51.698;4.886;2023-01-29T06:57:37;102979.22;;;1.04;100.00
1480;BME280;732;51.698;4.886;2023-01-29T07:00:07;102984.97;;;1.00;100.00
1480;BME280;732;51.698;4.886;2023-01-29T07:02:37;102980.66;;;1.00;100.00
1480;BME280;732;51.698;4.886;2023-01-29T07:05:07;102961.41;;;0.97;100.00
1480;BME280;732;51.698;4.886;2023-01-29T07:07:36;102989.25;;;1.11;100.00
1480;BME280;732;51.698;4.886;2023-01-29T07:10:06;102952.06;;;0.99;100.00
1480;BME280;732;51.698;4.886;2023-01-29T07:12:35;102933.91;;;0.87;100.00
1480;BME280;732;51.698;4.886;2023-01-29T07:15:05;102920.94;;;0.75;100.00
1480;BME280;732;51.698;4.886;2023-01-29T07:17:34;102979.47;;;1.07;100.00
1480;BME280;732;51.698;4.886;2023-01-29T07:20:04;102936.16;;;0.94;100.00
1480;BME280;732;51.698;4.886;2023-01-29T07:22:34;102935.16;;;0.80;100.00
1480;BME280;732;51.698;4.886;2023-01-29T07:25:04;102917.94;;;1.04;100.00
1480;BME280;732;51.698;4.886;2023-01-29T07:27:32;102877.28;;;0.80;100.00
1480;BME280;732;51.698;4.886;2023-01-29T07:30:01;102969.75;;;1.16;100.00
1480;BME280;732;51.698;4.886;2023-01-29T07:32:29;102980.13;;;1.16;100.00
1480;BME280;732;51.698;4.886;2023-01-29T07:34:58;102856.66;;;0.47;100.00
1480;BME280;732;51.698;4.886;2023-01-29T07:37:26;102879.66;;;0.77;100.00
1480;BME280;732;51.698;4.886;2023-01-29T07:39:56;102984.63;;;1.30;100.00
1480;BME280;732;51.698;4.886;2023-01-29T07:42:24;102987.78;;;1.03;100.00
1480;BME280;732;51.698;4.886;2023-01-29T07:44:53;102920.41;;;0.79;100.00
1480;BME280;732;51.698;4.886;2023-01-29T07:47:21;102926.69;;;0.83;100.00
1480;BME280;732;51.698;4.886;2023-01-29T07:49:49;102883.25;;;0.56;100.00
1480;BME280;732;51.698;4.886;2023-01-29T07:52:18;102930.53;;;0.76;100.00
1480;BME280;732;51.698;4.886;2023-01-29T07:54:48;102951.72;;;0.82;100.00
1480;BME280;732;51.698;4.886;2023-01-29T07:57:18;102976.97;;;0.97;100.00
1480;BME280;732;51.698;4.886;2023-01-29T07:59:46;102975.47;;;0.77;100.00
1480;BME280;732;51.698;4.886;2023-01-29T08:02:16;102942.72;;;0.89;100.00
1480;BME280;732;51.698;4.886;2023-01-29T08:04:45;102765.25;;;0.02;100.00
1480;BME280;732;51.698;4.886;2023-01-29T08:07:14;102957.81;;;1.06;100.00
1480;BME280;732;51.698;4.886;2023-01-29T08:09:42;102954.88;;;1.13;100.00
1480;BME280;732;51.698;4.886;2023-01-29T08:12:14;102952.75;;;1.19;100.00
1480;BME280;732;51.698;4.886;2023-01-29T08:14:44;102949.13;;;1.06;100.00
1480;BME280;732;51.698;4.886;2023-01-29T08:17:13;102902.28;;;0.79;100.00
1480;BME280;732;51.698;4.886;2023-01-29T08:19:41;102953.75;;;0.98;100.00
1480;BME280;732;51.698;4.886;2023-01-29T08:22:10;102949.59;;;1.00;100.00
1480;BME280;732;51.698;4.886;2023-01-29T08:24:38;102948.91;;;0.91;100.00
1480;BME280;732;51.698;4.886;2023-01-29T08:27:26;102914.88;;;0.86;100.00
1480;BME280;732;51.698;4.886;2023-01-29T08:29:56;102911.28;;;0.73;100.00
1480;BME280;732;51.698;4.886;2023-01-29T08:32:24;102946.41;;;0.93;100.00
1480;BME280;732;51.698;4.886;2023-01-29T08:34:53;102948.47;;;0.97;100.00
1480;BME280;732;51.698;4.886;2023-01-29T08:37:21;102939.13;;;0.99;100.00
1480;BME280;732;51.698;4.886;2023-01-29T08:39:49;102937.53;;;1.12;100.00
1480;BME280;732;51.698;4.886;2023-01-29T08:42:18;102863.31;;;0.66;100.00
1480;BME280;732;51.698;4.886;2023-01-29T08:44:46;102922.44;;;1.07;100.00
1480;BME280;732;51.698;4.886;2023-01-29T08:47:16;102780.59;;;0.45;100.00
1480;BME280;732;51.698;4.886;2023-01-29T08:49:45;102896.75;;;1.10;100.00
1480;BME280;732;51.698;4.886;2023-01-29T08:52:13;102753.69;;;0.31;100.00
1480;BME280;732;51.698;4.886;2023-01-29T08:54:42;102914.56;;;1.05;100.00
1480;BME280;732;51.698;4.886;2023-01-29T08:57:10;102884.81;;;1.00;100.00
1480;BME280;732;51.698;4.886;2023-01-29T08:59:39;102930.19;;;1.41;100.00
1480;BME280;732;51.698;4.886;2023-01-29T09:02:11;102907.31;;;1.36;100.00
1480;BME280;732;51.698;4.886;2023-01-29T09:04:41;102927.84;;;1.33;100.00
1480;BME280;732;51.698;4.886;2023-01-29T09:07:10;102868.94;;;1.07;100.00
1480;BME280;732;51.698;4.886;2023-01-29T09:09:39;102917.28;;;1.54;100.00
1480;BME280;732;51.698;4.886;2023-01-29T09:12:08;102916.53;;;1.55;100.00
1480;BME280;732;51.698;4.886;2023-01-29T09:14:36;102851.78;;;1.09;100.00
1480;BME280;732;51.698;4.886;2023-01-29T09:17:05;102911.00;;;1.51;100.00
1480;BME280;732;51.698;4.886;2023-01-29T09:19:33;102895.41;;;1.62;100.00
1480;BME280;732;51.698;4.886;2023-01-29T09:22:03;102880.72;;;1.38;100.00
1480;BME280;732;51.698;4.886;2023-01-29T09:24:32;102901.53;;;1.51;100.00
1480;BME280;732;51.698;4.886;2023-01-29T09:27:01;102872.75;;;1.24;100.00
1480;BME280;732;51.698;4.886;2023-01-29T09:29:30;102873.47;;;1.46;100.00
1480;BME280;732;51.698;4.886;2023-01-29T09:32:02;102800.50;;;1.17;100.00
1480;BME280;732;51.698;4.886;2023-01-29T09:34:33;102912.25;;;1.92;100.00
1480;BME280;732;51.698;4.886;2023-01-29T09:37:03;102881.59;;;2.11;100.00
1480;BME280;732;51.698;4.886;2023-01-29T09:39:32;102898.38;;;2.16;100.00
1480;BME280;732;51.698;4.886;2023-01-29T09:42:07;102853.16;;;1.88;100.00
1480;BME280;732;51.698;4.886;2023-01-29T09:44:50;102915.56;;;1.90;100.00
1480;BME280;732;51.698;4.886;2023-01-29T09:47:24;102847.00;;;1.74;100.00
1480;BME280;732;51.698;4.886;2023-01-29T09:49:57;102841.75;;;1.61;100.00
1480;BME280;732;51.698;4.886;2023-01-29T09:52:33;102906.59;;;1.98;100.00
1480;BME280;732;51.698;4.886;2023-01-29T09:55:11;102901.13;;;1.70;100.00
1480;BME280;732;51.698;4.886;2023-01-29T09:57:47;102771.03;;;1.15;100.00
1480;BME280;732;51.698;4.886;2023-01-29T10:00:22;102904.13;;;1.99;100.00
1480;BME280;732;51.698;4.886;2023-01-29T10:03:23;102717.06;;;1.09;100.00
1480;BME280;732;51.698;4.886;2023-01-29T10:06:14;102894.34;;;2.33;100.00
1480;BME280;732;51.698;4.886;2023-01-29T10:12:18;102876.72;;;2.16;100.00
1480;BME280;732;51.698;4.886;2023-01-29T10:14:57;102896.38;;;2.12;100.00
1480;BME280;732;51.698;4.886;2023-01-29T10:17:53;102851.94;;;2.08;100.00
1480;BME280;732;51.698;4.886;2023-01-29T10:20:52;102858.13;;;2.10;100.00
1480;BME280;732;51.698;4.886;2023-01-29T10:23:27;102851.47;;;2.13;100.00
1480;BME280;732;51.698;4.886;2023-01-29T10:26:01;102853.44;;;2.04;100.00
1480;BME280;732;51.698;4.886;2023-01-29T10:28:33;102804.03;;;1.78;100.00
1480;BME280;732;51.698;4.886;2023-01-29T10:31:09;102876.97;;;2.32;100.00
1480;BME280;732;51.698;4.886;2023-01-29T10:33:42;102852.38;;;2.14;100.00
1480;BME280;732;51.698;4.886;2023-01-29T10:36:36;102861.91;;;2.52;100.00
1480;BME280;732;51.698;4.886;2023-01-29T10:39:14;102825.47;;;2.51;100.00
1480;BME280;732;51.698;4.886;2023-01-29T10:42:04;102865.44;;;2.79;100.00
1480;BME280;732;51.698;4.886;2023-01-29T10:44:48;102824.78;;;2.53;100.00
1480;BME280;732;51.698;4.886;2023-01-29T10:47:44;102859.94;;;2.74;100.00
1480;BME280;732;51.698;4.886;2023-01-29T10:50:33;102799.41;;;2.49;100.00
1480;BME280;732;51.698;4.886;2023-01-29T10:53:35;102839.38;;;2.91;100.00
1480;BME280;732;51.698;4.886;2023-01-29T10:56:22;102826.16;;;2.61;100.00
1480;BME280;732;51.698;4.886;2023-01-29T10:59:00;102781.63;;;2.42;100.00
1480;BME280;732;51.698;4.886;2023-01-29T11:01:31;102826.47;;;2.66;100.00
1480;BME280;732;51.698;4.886;2023-01-29T11:04:03;102832.84;;;2.71;100.00
1480;BME280;732;51.698;4.886;2023-01-29T11:06:34;102780.22;;;2.34;100.00
1480;BME280;732;51.698;4.886;2023-01-29T11:09:08;102818.06;;;2.96;100.00
1480;BME280;732;51.698;4.886;2023-01-29T11:11:45;102775.13;;;2.62;100.00
1480;BME280;732;51.698;4.886;2023-01-29T11:14:25;102821.34;;;2.94;100.00
1480;BME280;732;51.698;4.886;2023-01-29T11:16:55;102789.28;;;2.67;100.00
1480;BME280;732;51.698;4.886;2023-01-29T11:19:38;102788.69;;;2.84;100.00
1480;BME280;732;51.698;4.886;2023-01-29T11:22:13;102791.66;;;3.03;100.00
1480;BME280;732;51.698;4.886;2023-01-29T11:24:42;102768.91;;;2.73;100.00
1480;BME280;732;51.698;4.886;2023-01-29T11:27:20;102737.34;;;2.67;100.00
1480;BME280;732;51.698;4.886;2023-01-29T11:29:53;102778.66;;;3.03;100.00
1480;BME280;732;51.698;4.886;2023-01-29T11:32:29;102692.09;;;2.63;100.00
1480;BME280;732;51.698;4.886;2023-01-29T11:35:03;102709.16;;;2.73;100.00
1480;BME280;732;51.698;4.886;2023-01-29T11:37:35;102763.94;;;3.17;100.00
1480;BME280;732;51.698;4.886;2023-01-29T11:40:34;102726.03;;;2.80;100.00
1480;BME280;732;51.698;4.886;2023-01-29T11:43:22;102750.06;;;2.62;100.00
1480;BME280;732;51.698;4.886;2023-01-29T11:45:59;102717.09;;;2.35;100.00
1480;BME280;732;51.698;4.886;2023-01-29T11:48:42;102729.34;;;2.64;100.00
1480;BME280;732;51.698;4.886;2023-01-29T11:51:22;102674.66;;;2.35;100.00
1480;BME280;732;51.698;4.886;2023-01-29T11:53:54;102767.28;;;2.88;100.00
1480;BME280;732;51.698;4.886;2023-01-29T11:56:29;102714.97;;;2.56;100.00
1480;BME280;732;51.698;4.886;2023-01-29T11:59:00;102718.47;;;2.56;100.00
1480;BME280;732;51.698;4.886;2023-01-29T12:01:35;102711.19;;;2.51;100.00
1480;BME280;732;51.698;4.886;2023-01-29T12:04:15;102759.25;;;2.70;100.00
1480;BME280;732;51.698;4.886;2023-01-29T12:06:47;102737.72;;;2.73;100.00
1480;BME280;732;51.698;4.886;2023-01-29T12:09:21;102704.53;;;2.82;100.00
1480;BME280;732;51.698;4.886;2023-01-29T12:11:50;102723.84;;;2.72;100.00
1480;BME280;732;51.698;4.886;2023-01-29T12:14:27;102738.16;;;3.07;100.00
1480;BME280;732;51.698;4.886;2023-01-29T12:17:05;102722.66;;;3.08;100.00
1480;BME280;732;51.698;4.886;2023-01-29T12:19:40;102701.28;;;2.99;100.00
1480;BME280;732;51.698;4.886;2023-01-29T12:22:18;102657.25;;;2.88;100.00
1480;BME280;732;51.698;4.886;2023-01-29T12:24:52;102658.16;;;2.88;100.00
1480;BME280;732;51.698;4.886;2023-01-29T12:27:28;102637.31;;;2.73;100.00
1480;BME280;732;51.698;4.886;2023-01-29T12:30:04;102673.00;;;2.76;100.00
1480;BME280;732;51.698;4.886;2023-01-29T12:32:43;102704.31;;;3.20;100.00
1480;BME280;732;51.698;4.886;2023-01-29T12:35:22;102683.47;;;3.05;100.00
1480;BME280;732;51.698;4.886;2023-01-29T12:37:59;102672.94;;;3.17;100.00
1480;BME280;732;51.698;4.886;2023-01-29T12:40:39;102599.38;;;2.90;100.00
1480;BME280;732;51.698;4.886;2023-01-29T12:43:15;102678.59;;;3.24;100.00
1480;BME280;732;51.698;4.886;2023-01-29T12:45:47;102674.59;;;3.02;100.00
1480;BME280;732;51.698;4.886;2023-01-29T12:48:23;102631.47;;;2.91;100.00
1480;BME280;732;51.698;4.886;2023-01-29T12:50:57;102605.34;;;3.02;100.00
1480;BME280;732;51.698;4.886;2023-01-29T12:53:33;102649.22;;;3.40;100.00
1480;BME280;732;51.698;4.886;2023-01-29T12:56:09;102621.03;;;3.33;100.00
1480;BME280;732;51.698;4.886;2023-01-29T12:58:44;102627.19;;;3.62;100.00
1480;BME280;732;51.698;4.886;2023-01-29T13:01:19;102648.16;;;3.51;100.00
1480;BME280;732;51.698;4.886;2023-01-29T13:03:55;102611.38;;;3.30;100.00
1480;BME280;732;51.698;4.886;2023-01-29T13:06:30;102634.41;;;3.39;100.00
1480;BME280;732;51.698;4.886;2023-01-29T13:09:03;102626.97;;;3.45;100.00
1480;BME280;732;51.698;4.886;2023-01-29T13:11:38;102629.91;;;3.22;100.00
1480;BME280;732;51.698;4.886;2023-01-29T13:14:17;102509.63;;;2.53;100.00
1480;BME280;732;51.698;4.886;2023-01-29T13:16:51;102613.78;;;3.27;100.00
1480;BME280;732;51.698;4.886;2023-01-29T13:19:26;102566.50;;;2.91;100.00
1480;BME280;732;51.698;4.886;2023-01-29T13:22:00;102581.03;;;3.02;100.00
1480;BME280;732;51.698;4.886;2023-01-29T13:24:38;102556.66;;;3.14;100.00
1480;BME280;732;51.698;4.886;2023-01-29T13:27:21;102570.63;;;3.31;100.00
1480;BME280;732;51.698;4.886;2023-01-29T13:29:51;102567.97;;;3.29;100.00
1480;BME280;732;51.698;4.886;2023-01-29T13:32:24;102522.50;;;2.94;100.00
1480;BME280;732;51.698;4.886;2023-01-29T13:34:57;102527.63;;;3.21;100.00
1480;BME280;732;51.698;4.886;2023-01-29T13:37:32;102520.47;;;3.17;100.00
1480;BME280;732;51.698;4.886;2023-01-29T13:40:05;102517.91;;;2.90;100.00
1480;BME280;732;51.698;4.886;2023-01-29T13:42:40;102537.84;;;3.18;100.00
1480;BME280;732;51.698;4.886;2023-01-29T13:45:19;102482.25;;;3.16;100.00
1480;BME280;732;51.698;4.886;2023-01-29T13:47:50;102519.09;;;3.24;100.00
1480;BME280;732;51.698;4.886;2023-01-29T13:50:34;102532.53;;;3.31;100.00
1480;BME280;732;51.698;4.886;2023-01-29T13:53:06;102545.91;;;3.37;100.00
1480;BME280;732;51.698;4.886;2023-01-29T13:55:38;102511.13;;;3.21;100.00
1480;BME280;732;51.698;4.886;2023-01-29T13:58:08;102542.84;;;3.44;100.00
1480;BME280;732;51.698;4.886;2023-01-29T14:00:51;102500.28;;;3.13;100.00
1480;BME280;732;51.698;4.886;2023-01-29T14:03:42;102534.22;;;3.60;100.00